createdAt,value
2018-02-23T00:01:50.527Z,10.19
2018-02-23T00:04:19.131Z,10.14
2018-02-23T00:06:47.699Z,10.29
2018-02-23T00:09:16.282Z,10.39
2018-02-23T00:11:45.161Z,10.38
2018-02-23T00:14:13.832Z,10.25
2018-02-23T00:16:42.468Z,10.26
2018-02-23T00:19:10.824Z,10.33
2018-02-23T00:21:39.598Z,10.40
2018-02-23T00:24:08.101Z,10.41
2018-02-23T00:26:36.871Z,10.34
2018-02-23T00:29:05.554Z,10.40
2018-02-23T00:31:34.238Z,10.22
2018-02-23T00:34:02.553Z,9.96
2018-02-23T00:36:30.999Z,10.07
2018-02-23T00:38:59.881Z,10.11
2018-02-23T00:41:28.262Z,10.00
2018-02-23T00:43:56.850Z,9.93
2018-02-23T00:46:25.327Z,9.78
2018-02-23T00:48:53.910Z,9.89
2018-02-23T00:51:22.296Z,10.06
2018-02-23T00:53:50.765Z,9.97
2018-02-23T00:56:19.352Z,9.94
2018-02-23T00:58:47.709Z,9.73
2018-02-23T01:01:16.214Z,9.57
2018-02-23T01:03:45.094Z,9.37
2018-02-23T01:06:13.986Z,9.25
2018-02-23T01:08:42.470Z,9.39
2018-02-23T01:11:10.850Z,9.53
2018-02-23T01:13:39.845Z,9.30
2018-02-23T01:16:08.677Z,9.52
2018-02-23T01:18:37.312Z,9.51
2018-02-23T01:21:06.097Z,9.63
2018-02-23T01:23:34.825Z,8.98
2018-02-23T01:26:03.264Z,8.99
2018-02-23T01:28:31.629Z,9.04
2018-02-23T01:31:00.221Z,9.54
2018-02-23T01:33:28.651Z,9.83
2018-02-23T01:35:57.126Z,9.60
2018-02-23T01:38:25.565Z,9.66
2018-02-23T01:40:54.149Z,9.77
2018-02-23T01:43:22.538Z,9.78
2018-02-23T01:45:51.106Z,9.88
2018-02-23T01:48:19.591Z,10.01
2018-02-23T01:51:00.043Z,9.92
2018-02-23T01:53:28.633Z,9.84
2018-02-23T01:55:57.214Z,9.96
2018-02-23T01:58:26.514Z,9.90
2018-02-23T02:00:54.790Z,9.79
2018-02-23T02:03:23.065Z,9.94
2018-02-23T02:05:51.648Z,9.89
2018-02-23T02:08:20.418Z,9.80
2018-02-23T02:10:49.054Z,9.68
2018-02-23T02:13:17.917Z,9.85
2018-02-23T02:15:46.897Z,10.03
2018-02-23T02:18:15.384Z,10.10
2018-02-23T02:20:43.961Z,9.98
2018-02-23T02:23:12.341Z,9.98
2018-02-23T02:25:41.031Z,10.03
2018-02-23T02:28:09.514Z,10.12
2018-02-23T02:30:38.002Z,9.83
2018-02-23T02:33:06.577Z,9.69
2018-02-23T02:35:35.260Z,9.31
2018-02-23T02:38:03.354Z,9.16
2018-02-23T02:40:32.123Z,9.59
2018-02-23T02:43:00.729Z,9.55
2018-02-23T02:45:29.136Z,9.83
2018-02-23T02:47:57.762Z,9.97
2018-02-23T02:50:26.347Z,10.01
2018-02-23T02:52:55.954Z,10.05
2018-02-23T02:55:24.641Z,10.07
2018-02-23T02:57:53.322Z,10.07
2018-02-23T03:00:21.505Z,10.12
2018-02-23T03:02:50.077Z,9.99
2018-02-23T03:05:18.764Z,10.14
2018-02-23T03:07:47.184Z,10.12
2018-02-23T03:10:15.623Z,10.07
2018-02-23T03:12:44.106Z,9.95
2018-02-23T03:15:12.890Z,10.09
2018-02-23T03:17:41.774Z,9.79
2018-02-23T03:20:10.163Z,9.90
2018-02-23T03:22:38.535Z,10.02
2018-02-23T03:25:06.915Z,9.24
2018-02-23T03:27:35.597Z,9.94
2018-02-23T03:30:03.862Z,9.95
2018-02-23T03:32:32.646Z,9.97
2018-02-23T03:35:01.964Z,10.09
2018-02-23T03:37:30.441Z,10.00
2018-02-23T03:39:59.126Z,9.98
2018-02-23T03:42:27.501Z,9.83
2018-02-23T03:44:55.881Z,9.81
2018-02-23T03:47:24.367Z,9.88
2018-02-23T03:49:52.641Z,9.87
2018-02-23T03:52:21.143Z,9.85
2018-02-23T03:54:49.806Z,9.82
2018-02-23T03:57:17.938Z,9.88
2018-02-23T03:59:46.667Z,9.85
2018-02-23T04:02:15.445Z,9.85
2018-02-23T04:04:43.810Z,9.76
2018-02-23T04:07:12.315Z,9.80
2018-02-23T04:09:40.685Z,9.78
2018-02-23T04:12:08.867Z,9.88
2018-02-23T04:14:37.337Z,9.94
2018-02-23T04:17:05.608Z,9.97
2018-02-23T04:19:34.713Z,10.01
2018-02-23T04:22:03.497Z,9.99
2018-02-23T04:24:32.290Z,10.03
2018-02-23T04:27:00.974Z,10.05
2018-02-23T04:29:29.364Z,10.07
2018-02-23T04:31:57.843Z,10.11
2018-02-23T04:34:26.309Z,10.12
2018-02-23T04:36:54.787Z,10.16
2018-02-23T04:39:23.273Z,10.12
2018-02-23T04:41:51.956Z,10.14
2018-02-23T04:44:20.356Z,10.13
2018-02-23T04:46:48.818Z,10.15
2018-02-23T04:49:17.402Z,10.15
2018-02-23T04:51:45.847Z,10.22
2018-02-23T04:54:14.261Z,10.16
2018-02-23T04:56:42.847Z,10.09
2018-02-23T04:59:11.404Z,10.07
2018-02-23T05:01:39.813Z,10.08
2018-02-23T05:04:08.694Z,10.02
2018-02-23T05:06:37.052Z,10.06
2018-02-23T05:09:05.346Z,10.02
2018-02-23T05:11:33.617Z,10.05
2018-02-23T05:14:02.062Z,10.07
2018-02-23T05:16:30.740Z,10.13
2018-02-23T05:18:59.369Z,10.23
2018-02-23T05:21:28.067Z,10.33
2018-02-23T05:23:56.742Z,10.27
2018-02-23T05:26:25.226Z,10.14
2018-02-23T05:28:53.631Z,10.04
2018-02-23T05:31:22.298Z,10.00
2018-02-23T05:33:50.651Z,10.08
2018-02-23T05:36:19.146Z,9.91
2018-02-23T05:38:47.826Z,9.70
2018-02-23T05:41:16.212Z,9.51
2018-02-23T05:43:44.206Z,9.36
2018-02-23T05:46:12.195Z,9.29
2018-02-23T05:48:40.225Z,9.67
2018-02-23T05:51:08.217Z,9.85
2018-02-23T05:53:36.211Z,10.04
2018-02-23T05:56:04.277Z,10.00
2018-02-23T05:58:32.293Z,10.10
2018-02-23T06:01:00.288Z,10.18
2018-02-23T06:03:28.238Z,10.26
2018-02-23T06:05:56.260Z,10.28
2018-02-23T06:08:24.274Z,10.31
2018-02-23T06:10:52.904Z,10.04
2018-02-23T06:13:21.363Z,9.95
2018-02-23T06:15:55.013Z,9.98
2018-02-23T06:18:28.635Z,9.93
2018-02-23T06:20:56.584Z,9.94
2018-02-23T06:23:26.003Z,10.08
2018-02-23T06:25:54.020Z,10.22
2018-02-23T06:28:22.023Z,10.27
2018-02-23T06:30:50.024Z,10.30
2018-02-23T06:33:18.036Z,10.36
2018-02-23T06:35:46.046Z,10.45
2018-02-23T06:38:14.089Z,10.36
2018-02-23T06:40:42.070Z,10.21
2018-02-23T06:43:10.112Z,10.49
2018-02-23T06:45:38.148Z,10.47
2018-02-23T06:48:06.091Z,9.96
2018-02-23T06:50:34.063Z,10.28
2018-02-23T06:53:02.079Z,10.59
2018-02-23T06:55:30.076Z,10.61
2018-02-23T06:57:57.998Z,10.62
2018-02-23T07:00:25.991Z,10.35
2018-02-23T07:02:53.950Z,10.29
2018-02-23T07:05:21.940Z,10.19
2018-02-23T07:07:49.865Z,10.35
2018-02-23T07:10:17.906Z,9.82
2018-02-23T07:12:45.851Z,9.28
2018-02-23T07:15:13.840Z,9.53
2018-02-23T07:17:41.836Z,9.92
2018-02-23T07:20:09.850Z,10.20
2018-02-23T07:22:37.851Z,10.44
2018-02-23T07:25:06.243Z,10.15
2018-02-23T07:27:34.290Z,10.32
2018-02-23T07:30:02.279Z,10.33
2018-02-23T07:32:30.254Z,10.58
2018-02-23T07:34:58.231Z,10.41
2018-02-23T07:37:26.290Z,9.85
2018-02-23T07:39:54.259Z,10.18
2018-02-23T07:42:22.169Z,9.99
2018-02-23T07:44:50.110Z,9.93
2018-02-23T07:47:18.046Z,10.12
2018-02-23T07:49:46.400Z,9.85
2018-02-23T07:52:14.450Z,9.96
2018-02-23T07:54:42.414Z,9.83
2018-02-23T07:57:10.358Z,9.96
2018-02-23T07:59:38.378Z,10.47
2018-02-23T08:02:06.342Z,10.32
2018-02-23T08:04:34.269Z,10.33
2018-02-23T08:07:02.222Z,10.80
2018-02-23T08:09:30.194Z,10.65
2018-02-23T08:11:58.182Z,11.09
2018-02-23T08:14:26.199Z,10.54
2018-02-23T08:16:54.176Z,10.76
2018-02-23T08:19:22.121Z,10.89
2018-02-23T08:21:50.123Z,10.63
2018-02-23T08:24:18.147Z,10.79
2018-02-23T08:26:46.491Z,11.37
2018-02-23T08:29:14.532Z,11.56
2018-02-23T08:31:42.453Z,11.67
2018-02-23T08:34:10.447Z,11.14
2018-02-23T08:36:38.402Z,10.90
2018-02-23T08:39:06.389Z,11.45
2018-02-23T08:41:34.339Z,11.32
2018-02-23T08:44:02.373Z,11.51
2018-02-23T08:46:30.360Z,11.46
2018-02-23T08:48:58.347Z,11.77
2018-02-23T08:51:26.430Z,11.90
2018-02-23T08:53:54.392Z,11.68
2018-02-23T08:56:22.426Z,11.56
2018-02-23T08:58:50.419Z,11.86
2018-02-23T09:01:18.491Z,11.70
2018-02-23T09:03:46.529Z,11.68
2018-02-23T09:06:14.544Z,11.94
2018-02-23T09:08:42.518Z,11.97
2018-02-23T09:11:10.542Z,12.10
2018-02-23T09:13:38.501Z,11.99
2018-02-23T09:16:06.503Z,12.05
2018-02-23T09:18:34.476Z,12.17
2018-02-23T09:21:02.510Z,12.23
2018-02-23T09:23:30.612Z,12.22
2018-02-23T09:25:58.724Z,12.14
2018-02-23T09:28:27.103Z,12.18
2018-02-23T09:30:55.193Z,12.54
2018-02-23T09:33:23.562Z,12.44
2018-02-23T09:35:51.678Z,12.07
2018-02-23T09:38:19.795Z,12.20
2018-02-23T09:40:47.842Z,12.45
2018-02-23T09:43:15.815Z,12.72
2018-02-23T09:45:43.821Z,12.28
2018-02-23T09:48:11.696Z,12.55
2018-02-23T09:50:39.754Z,12.63
2018-02-23T09:53:07.716Z,12.82
2018-02-23T09:55:35.708Z,12.71
2018-02-23T09:58:03.703Z,12.75
2018-02-23T10:00:31.709Z,12.78
2018-02-23T10:02:59.692Z,12.94
2018-02-23T10:05:27.700Z,12.84
2018-02-23T10:07:55.648Z,12.16
2018-02-23T10:10:23.663Z,12.44
2018-02-23T10:12:51.789Z,12.53
2018-02-23T10:15:19.747Z,12.73
2018-02-23T10:17:47.740Z,12.57
2018-02-23T10:20:15.757Z,12.79
2018-02-23T10:22:43.906Z,12.72
2018-02-23T10:25:12.032Z,13.02
2018-02-23T10:27:40.626Z,12.95
2018-02-23T10:30:09.462Z,12.81
2018-02-23T10:32:37.753Z,12.72
2018-02-23T10:35:05.984Z,12.69
2018-02-23T10:37:34.023Z,12.92
2018-02-23T10:40:02.051Z,12.81
2018-02-23T10:42:30.135Z,12.89
2018-02-23T10:44:58.124Z,13.16
2018-02-23T10:47:26.094Z,12.88
2018-02-23T10:49:54.061Z,13.08
2018-02-23T10:52:22.121Z,13.07
2018-02-23T10:54:50.096Z,13.29
2018-02-23T10:57:18.173Z,13.85
2018-02-23T10:59:46.165Z,13.44
2018-02-23T11:02:14.186Z,13.38
2018-02-23T11:04:42.195Z,13.03
2018-02-23T11:07:11.235Z,13.56
2018-02-23T11:09:40.153Z,13.08
2018-02-23T11:12:08.131Z,12.76
2018-02-23T11:14:36.113Z,12.62
2018-02-23T11:17:05.198Z,12.40
2018-02-23T11:19:33.226Z,13.12
2018-02-23T11:22:01.326Z,13.20
2018-02-23T11:24:29.273Z,13.41
2018-02-23T11:26:57.284Z,13.10
2018-02-23T11:29:25.268Z,12.65
2018-02-23T11:31:53.456Z,13.51
2018-02-23T11:34:21.515Z,13.62
2018-02-23T11:36:49.468Z,13.10
2018-02-23T11:39:17.403Z,12.75
2018-02-23T11:41:45.373Z,12.89
2018-02-23T11:44:13.344Z,13.33
2018-02-23T11:46:42.378Z,13.15
2018-02-23T11:49:12.738Z,12.81
2018-02-23T11:51:40.731Z,12.49
2018-02-23T11:54:08.750Z,12.95
2018-02-23T11:56:36.760Z,13.18
2018-02-23T11:59:05.232Z,13.39
2018-02-23T12:01:34.894Z,13.41
2018-02-23T12:04:02.937Z,12.28
2018-02-23T12:06:30.898Z,12.15
2018-02-23T12:08:58.868Z,12.54
2018-02-23T12:11:26.848Z,13.10
2018-02-23T12:13:54.818Z,13.53
2018-02-23T12:16:22.806Z,13.45
2018-02-23T12:18:50.796Z,13.11
2018-02-23T12:21:18.788Z,13.39
2018-02-23T12:23:46.795Z,13.70
2018-02-23T12:26:14.775Z,14.45
2018-02-23T12:28:42.826Z,14.91
2018-02-23T12:31:10.762Z,14.33
2018-02-23T12:33:40.294Z,14.39
2018-02-23T12:36:08.238Z,14.52
2018-02-23T12:38:37.120Z,14.62
2018-02-23T12:41:05.158Z,14.68
2018-02-23T12:43:33.102Z,14.34
2018-02-23T12:46:01.031Z,13.88
2018-02-23T12:48:28.931Z,14.15
2018-02-23T12:50:56.854Z,14.25
2018-02-23T12:53:24.827Z,13.86
2018-02-23T12:55:52.774Z,14.31
2018-02-23T12:58:20.695Z,13.71
2018-02-23T13:00:48.629Z,13.54
2018-02-23T13:03:16.575Z,13.14
2018-02-23T13:05:44.420Z,13.04
2018-02-23T13:08:12.413Z,13.00
2018-02-23T13:10:40.322Z,12.94
2018-02-23T13:13:08.313Z,13.03
2018-02-23T13:15:36.306Z,13.22
2018-02-23T13:18:04.315Z,12.98
2018-02-23T13:20:32.253Z,12.80
2018-02-23T13:23:00.199Z,13.09
2018-02-23T13:25:28.130Z,13.29
2018-02-23T13:31:11.214Z,13.98
2018-02-23T13:33:39.313Z,14.27
2018-02-23T13:36:08.497Z,13.85
2018-02-23T13:38:36.609Z,14.17
2018-02-23T13:41:10.570Z,14.30
2018-02-23T13:43:38.651Z,14.57
2018-02-23T13:46:06.722Z,14.39
2018-02-23T13:48:34.806Z,14.18
2018-02-23T13:51:02.856Z,13.99
2018-02-23T13:53:36.363Z,14.13
2018-02-23T13:56:04.443Z,13.87
2018-02-23T13:58:32.475Z,13.81
2018-02-23T14:01:00.535Z,13.72
2018-02-23T14:03:28.513Z,13.75
2018-02-23T14:05:56.652Z,14.05
2018-02-23T14:08:24.703Z,13.94
2018-02-23T14:10:52.700Z,13.93
2018-02-23T14:13:20.714Z,13.26
2018-02-23T14:15:48.849Z,12.99
2018-02-23T14:18:16.863Z,13.00
2018-02-23T14:20:44.907Z,13.09
2018-02-23T14:23:12.847Z,12.81
2018-02-23T14:25:40.889Z,12.78
2018-02-23T14:28:08.871Z,12.77
2018-02-23T14:30:36.884Z,13.13
2018-02-23T14:33:04.901Z,12.79
2018-02-23T14:35:33.519Z,12.89
2018-02-23T14:38:01.809Z,13.21
2018-02-23T14:40:29.816Z,12.77
2018-02-23T14:42:57.714Z,12.71
2018-02-23T14:45:25.701Z,12.83
2018-02-23T14:47:53.754Z,12.49
2018-02-23T14:50:33.479Z,12.71
2018-02-23T14:53:01.462Z,12.96
2018-02-23T14:55:29.364Z,12.61
2018-02-23T14:57:58.032Z,12.29
2018-02-23T15:00:25.951Z,12.62
2018-02-23T15:02:53.917Z,12.30
2018-02-23T15:05:22.033Z,12.03
2018-02-23T15:07:50.012Z,12.27
2018-02-23T15:10:18.222Z,12.23
2018-02-23T15:12:46.230Z,12.59
2018-02-23T15:15:14.210Z,12.95
2018-02-23T15:17:42.153Z,12.63
2018-02-23T15:20:10.079Z,12.62
2018-02-23T15:22:38.106Z,12.47
2018-02-23T15:25:06.015Z,12.29
2018-02-23T15:27:34.001Z,11.89
2018-02-23T15:30:01.992Z,11.91
2018-02-23T15:32:30.861Z,11.72
2018-02-23T15:34:58.857Z,11.72
2018-02-23T15:37:26.833Z,11.56
2018-02-23T15:39:55.286Z,11.69
2018-02-23T15:42:25.885Z,11.85
2018-02-23T15:44:53.873Z,11.68
2018-02-23T15:50:30.698Z,11.54
2018-02-23T15:52:58.765Z,11.49
2018-02-23T15:55:27.304Z,11.39
2018-02-23T15:57:59.266Z,11.62
2018-02-23T16:00:27.326Z,11.98
2018-02-23T16:02:55.410Z,11.80
2018-02-23T16:05:23.429Z,11.99
2018-02-23T16:07:51.454Z,12.14
2018-02-23T16:10:19.385Z,12.12
2018-02-23T16:12:48.206Z,11.44
2018-02-23T16:15:16.256Z,11.50
2018-02-23T16:17:44.267Z,11.68
2018-02-23T16:20:13.531Z,11.63
2018-02-23T16:22:43.024Z,11.67
2018-02-23T16:27:47.449Z,11.78
2018-02-23T16:30:16.277Z,11.62
2018-02-23T16:32:45.342Z,11.65
2018-02-23T16:35:13.474Z,11.51
2018-02-23T16:37:44.309Z,11.37
2018-02-23T16:40:13.050Z,11.53
2018-02-23T16:42:40.954Z,11.54
2018-02-23T16:45:08.973Z,11.45
2018-02-23T16:47:36.926Z,11.50
2018-02-23T16:50:04.851Z,11.33
2018-02-23T16:52:32.862Z,11.63
2018-02-23T16:55:00.858Z,11.76
2018-02-23T16:57:28.814Z,11.81
2018-02-23T16:59:56.813Z,12.01
2018-02-23T17:02:24.823Z,12.15
2018-02-23T17:04:52.754Z,12.23
2018-02-23T17:07:20.818Z,12.22
2018-02-23T17:09:48.828Z,11.96
2018-02-23T17:12:16.816Z,11.89
2018-02-23T17:14:44.779Z,11.87
2018-02-23T17:17:12.769Z,11.75
2018-02-23T17:19:40.697Z,11.73
2018-02-23T17:22:08.686Z,11.57
2018-02-23T17:24:36.672Z,11.34
2018-02-23T17:27:04.728Z,11.40
2018-02-23T17:29:32.788Z,11.44
2018-02-23T17:32:00.806Z,11.32
2018-02-23T17:34:28.881Z,10.98
2018-02-23T17:36:56.898Z,10.97
2018-02-23T17:39:24.954Z,11.21
2018-02-23T17:41:53.206Z,11.01
2018-02-23T17:44:21.211Z,11.12
2018-02-23T17:46:49.260Z,11.33
2018-02-23T17:49:18.603Z,11.31
2018-02-23T17:51:46.587Z,11.66
2018-02-23T17:54:14.643Z,11.32
2018-02-23T17:56:42.801Z,11.33
2018-02-23T17:59:10.822Z,11.25
2018-02-23T18:01:39.403Z,11.35
2018-02-23T18:04:07.365Z,11.35
2018-02-23T18:06:35.569Z,11.52
2018-02-23T18:09:03.577Z,11.18
2018-02-23T18:11:31.539Z,11.24
2018-02-23T18:13:59.513Z,11.34
2018-02-23T18:16:27.543Z,11.13
2018-02-23T18:18:55.556Z,11.15
2018-02-23T18:21:23.532Z,11.23
2018-02-23T18:23:51.514Z,10.75
2018-02-23T18:26:19.560Z,10.84
2018-02-23T18:28:47.543Z,10.37
2018-02-23T18:31:15.589Z,10.67
2018-02-23T18:33:44.081Z,9.83
2018-02-23T18:36:12.112Z,9.88
2018-02-23T18:38:40.144Z,10.11
2018-02-23T18:41:08.134Z,9.86
2018-02-23T18:43:36.616Z,9.80
2018-02-23T18:46:04.634Z,10.20
2018-02-23T18:48:32.574Z,10.35
2018-02-23T18:51:01.205Z,10.28
2018-02-23T18:53:29.216Z,10.21
2018-02-23T18:55:57.294Z,10.09
2018-02-23T18:58:26.195Z,9.75
2018-02-23T19:00:54.328Z,10.22
2018-02-23T19:03:22.354Z,10.16
2018-02-23T19:05:50.384Z,9.89
2018-02-23T19:08:19.072Z,10.21
2018-02-23T19:10:47.116Z,10.14
2018-02-23T19:13:15.200Z,9.71
2018-02-23T19:15:43.216Z,10.08
2018-02-23T19:18:11.111Z,10.05
2018-02-23T19:20:38.956Z,9.74
2018-02-23T19:23:06.951Z,9.62
2018-02-23T19:25:34.966Z,10.06
2018-02-23T19:28:03.075Z,9.93
2018-02-23T19:30:31.069Z,9.84
2018-02-23T19:32:59.055Z,9.92
2018-02-23T19:35:31.216Z,9.66
2018-02-23T19:37:59.290Z,9.63
2018-02-23T19:40:27.332Z,9.72
2018-02-23T19:42:55.478Z,9.85
2018-02-23T19:45:24.377Z,9.68
2018-02-23T19:47:53.811Z,9.46
2018-02-23T19:50:22.669Z,9.36
2018-02-23T19:52:50.766Z,8.70
2018-02-23T19:55:18.753Z,8.70
2018-02-23T19:57:46.785Z,8.88
2018-02-23T20:00:16.218Z,9.29
2018-02-23T20:05:28.983Z,9.15
2018-02-23T20:08:01.447Z,8.88
2018-02-23T20:10:29.508Z,9.14
2018-02-23T20:13:00.979Z,9.23
2018-02-23T20:15:30.964Z,9.12
2018-02-23T20:18:05.306Z,9.48
2018-02-23T20:20:35.488Z,9.51
2018-02-23T20:25:41.375Z,9.58
2018-02-23T20:28:10.295Z,9.70
2018-02-23T20:30:39.286Z,9.56
2018-02-23T20:33:07.260Z,9.08
2018-02-23T20:35:35.219Z,8.40
2018-02-23T20:38:03.219Z,9.00
2018-02-23T20:40:31.258Z,9.33
2018-02-23T20:43:01.898Z,9.34
2018-02-23T20:45:30.244Z,8.82
2018-02-23T20:47:58.220Z,8.76
2018-02-23T20:50:26.130Z,9.26
2018-02-23T20:52:54.091Z,9.30
2018-02-23T20:55:22.088Z,8.95
2018-02-23T20:57:50.072Z,9.06
2018-02-23T21:00:18.047Z,9.27
2018-02-23T21:02:46.038Z,9.50
2018-02-23T21:05:13.996Z,9.62
2018-02-23T21:07:42.012Z,9.62
2018-02-23T21:10:10.095Z,9.58
2018-02-23T21:12:38.125Z,9.47
2018-02-23T21:15:06.144Z,9.58
2018-02-23T21:17:34.118Z,9.69
2018-02-23T21:20:02.082Z,9.90
2018-02-23T21:22:30.073Z,9.40
2018-02-23T21:24:58.063Z,9.35
2018-02-23T21:27:26.050Z,9.20
2018-02-23T21:29:53.994Z,9.28
2018-02-23T21:32:22.000Z,9.39
2018-02-23T21:34:49.989Z,9.68
2018-02-23T21:37:17.997Z,9.50
2018-02-23T21:39:46.009Z,9.65
2018-02-23T21:42:14.037Z,9.47
2018-02-23T21:44:48.028Z,9.65
2018-02-23T21:47:16.450Z,9.68
2018-02-23T21:49:44.442Z,9.07
2018-02-23T21:52:12.440Z,9.45
2018-02-23T21:54:40.486Z,8.87
2018-02-23T21:57:08.432Z,8.89
2018-02-23T21:59:36.527Z,8.95
2018-02-23T22:02:04.525Z,9.21
2018-02-23T22:04:32.523Z,9.13
2018-02-23T22:07:00.594Z,8.72
2018-02-23T22:09:28.539Z,8.83
2018-02-23T22:11:56.688Z,8.90
2018-02-23T22:14:24.722Z,8.59
2018-02-23T22:16:52.704Z,7.63
2018-02-23T22:19:20.723Z,8.56
2018-02-23T22:21:48.763Z,8.88
2018-02-23T22:24:16.779Z,8.30
2018-02-23T22:26:44.851Z,8.54
2018-02-23T22:29:12.894Z,8.76
2018-02-23T22:31:40.918Z,8.65
2018-02-23T22:34:08.995Z,8.42
2018-02-23T22:36:37.037Z,8.93
2018-02-23T22:39:05.131Z,8.49
2018-02-23T22:41:33.116Z,8.64
2018-02-23T22:44:01.121Z,8.37
2018-02-23T22:46:29.129Z,8.47
2018-02-23T22:48:57.518Z,8.63
2018-02-23T22:51:25.494Z,8.08
2018-02-23T22:53:53.474Z,8.15
2018-02-23T22:56:21.510Z,8.62
2018-02-23T22:58:49.546Z,8.89
2018-02-23T23:01:17.560Z,8.95
2018-02-23T23:03:45.619Z,9.10
2018-02-23T23:06:13.557Z,8.90
2018-02-23T23:08:41.579Z,9.11
2018-02-23T23:11:09.591Z,9.19
2018-02-23T23:13:37.658Z,8.47
2018-02-23T23:16:05.662Z,8.17
2018-02-23T23:18:33.635Z,8.66
2018-02-23T23:21:01.636Z,9.06
2018-02-23T23:23:29.559Z,9.18
2018-02-23T23:25:57.557Z,8.96
2018-02-23T23:28:25.567Z,8.79
2018-02-23T23:30:53.532Z,9.00
2018-02-23T23:33:21.541Z,9.09
2018-02-23T23:35:49.574Z,8.85
2018-02-23T23:38:17.647Z,9.08
2018-02-23T23:40:45.599Z,9.37
2018-02-23T23:43:13.555Z,9.11
2018-02-23T23:45:41.482Z,9.24
2018-02-23T23:48:09.481Z,9.35
2018-02-23T23:50:37.652Z,9.38
2018-02-23T23:53:05.603Z,9.17
2018-02-23T23:55:33.599Z,9.28
2018-02-23T23:58:01.586Z,9.39
